createdAt,value
2023-02-02T00:03:35.761Z,6.21
2023-02-02T00:08:39.916Z,6.23
2023-02-02T00:13:42.912Z,6.32
2023-02-02T00:18:45.706Z,6.32
2023-02-02T00:23:49.874Z,6.34
2023-02-02T00:28:52.866Z,6.34
2023-02-02T00:33:55.657Z,6.36
2023-02-02T00:38:59.849Z,6.36
2023-02-02T00:44:20.089Z,6.32
2023-02-02T00:49:23.211Z,6.26
2023-02-02T00:54:28.043Z,6.28
2023-02-02T00:59:30.850Z,6.29
2023-02-02T01:04:33.647Z,6.33
2023-02-02T01:09:37.800Z,6.30
2023-02-02T01:14:40.713Z,6.26
2023-02-02T01:19:43.486Z,6.24
2023-02-02T01:24:49.371Z,6.26
2023-02-02T01:29:52.280Z,6.24
2023-02-02T01:34:55.027Z,6.25
2023-02-02T01:39:59.148Z,6.22
2023-02-02T01:45:27.158Z,6.23
2023-02-02T01:50:35.780Z,6.23
2023-02-02T01:55:42.238Z,6.12
2023-02-02T02:00:47.013Z,6.03
2023-02-02T02:05:54.129Z,5.97
2023-02-02T02:10:58.395Z,5.90
2023-02-02T02:16:20.981Z,5.83
2023-02-02T02:21:58.868Z,5.78
2023-02-02T02:27:34.843Z,5.74
2023-02-02T02:32:46.527Z,5.75
2023-02-02T02:37:55.607Z,5.68
2023-02-02T02:43:01.800Z,5.67
2023-02-02T02:48:10.284Z,5.65
2023-02-02T02:53:19.010Z,5.61
2023-02-02T02:58:33.363Z,5.61
2023-02-02T03:03:52.285Z,5.59
2023-02-02T03:08:59.804Z,5.58
2023-02-02T03:14:03.098Z,5.58
2023-02-02T03:19:08.285Z,5.56
2023-02-02T03:24:11.125Z,5.54
2023-02-02T03:29:14.716Z,5.55
2023-02-02T03:34:19.286Z,5.53
2023-02-02T03:39:22.627Z,5.52
2023-02-02T03:44:25.699Z,5.51
2023-02-02T03:49:29.907Z,5.52
2023-02-02T03:54:32.680Z,5.53
2023-02-02T03:59:35.415Z,5.56
2023-02-02T04:04:39.598Z,5.58
2023-02-02T04:09:42.332Z,5.59
2023-02-02T04:14:45.082Z,5.63
2023-02-02T04:19:49.286Z,5.65
2023-02-02T04:24:52.087Z,5.65
2023-02-02T04:29:54.846Z,5.64
2023-02-02T04:34:59.012Z,5.66
2023-02-02T04:40:01.882Z,5.64
2023-02-02T04:45:05.207Z,5.59
2023-02-02T04:50:12.126Z,5.59
2023-02-02T04:55:15.300Z,5.56
2023-02-02T05:00:18.568Z,5.53
2023-02-02T05:05:23.062Z,5.49
2023-02-02T05:10:26.373Z,5.46
2023-02-02T05:15:29.165Z,5.45
2023-02-02T05:20:33.259Z,5.42
2023-02-02T05:25:35.986Z,5.39
2023-02-02T05:30:40.555Z,5.39
2023-02-02T05:35:45.990Z,5.39
2023-02-02T05:40:49.738Z,5.39
2023-02-02T05:45:52.691Z,5.37
2023-02-02T05:51:04.333Z,5.35
2023-02-02T05:56:07.523Z,5.35
2023-02-02T06:01:10.639Z,5.35
2023-02-02T06:06:15.202Z,5.34
2023-02-02T06:11:19.393Z,5.34
2023-02-02T06:16:22.258Z,5.31
2023-02-02T06:21:26.399Z,5.31
2023-02-02T06:26:30.110Z,5.31
2023-02-02T06:31:33.970Z,5.31
2023-02-02T06:36:38.238Z,5.31
2023-02-02T06:41:41.378Z,5.32
2023-02-02T06:46:44.281Z,5.33
2023-02-02T06:51:49.263Z,5.34
2023-02-02T06:56:52.035Z,5.36
2023-02-02T07:01:54.837Z,5.32
2023-02-02T07:06:59.056Z,5.35
2023-02-02T07:12:01.843Z,5.35
2023-02-02T07:17:04.724Z,5.36
2023-02-02T07:22:08.972Z,5.36
2023-02-02T07:27:11.972Z,5.36
2023-02-02T07:32:14.770Z,5.35
2023-02-02T07:37:19.054Z,5.37
2023-02-02T07:42:21.885Z,5.41
2023-02-02T07:47:25.580Z,5.50
2023-02-02T07:52:31.744Z,5.59
2023-02-02T07:57:34.530Z,5.61
2023-02-02T08:02:37.383Z,5.64
2023-02-02T08:07:41.866Z,5.66
2023-02-02T08:12:44.627Z,5.71
2023-02-02T08:17:49.962Z,5.76
2023-02-02T08:22:54.080Z,5.80
2023-02-02T08:27:58.630Z,5.81
2023-02-02T08:33:01.399Z,5.84
2023-02-02T08:38:07.479Z,5.86
2023-02-02T08:43:10.664Z,5.96
2023-02-02T08:48:14.412Z,6.05
2023-02-02T08:53:18.784Z,6.03
2023-02-02T08:58:21.490Z,6.05
2023-02-02T09:03:24.296Z,6.00
2023-02-02T09:08:28.447Z,5.98
2023-02-02T09:13:32.069Z,6.00
2023-02-02T09:18:36.144Z,5.93
2023-02-02T09:23:42.472Z,5.91
2023-02-02T09:28:47.966Z,5.88
2023-02-02T09:33:51.317Z,5.94
2023-02-02T09:38:55.929Z,5.95
2023-02-02T09:44:11.415Z,6.01
2023-02-02T09:49:18.334Z,6.04
2023-02-02T09:54:28.302Z,6.04
2023-02-02T09:59:36.659Z,6.06
2023-02-02T10:04:42.531Z,6.11
2023-02-02T10:09:51.940Z,6.16
2023-02-02T10:14:59.126Z,6.08
2023-02-02T10:20:08.115Z,6.03
2023-02-02T10:25:16.121Z,6.05
2023-02-02T10:30:20.914Z,5.99
2023-02-02T10:35:37.175Z,5.99
2023-02-02T10:40:51.422Z,5.98
2023-02-02T10:45:55.475Z,5.99
2023-02-02T10:51:02.432Z,5.94
2023-02-02T10:56:11.799Z,5.94
2023-02-02T11:01:17.972Z,5.96
2023-02-02T11:06:38.594Z,6.01
2023-02-02T11:11:45.232Z,6.04
2023-02-02T11:17:02.582Z,6.05
2023-02-02T11:22:05.880Z,6.06
2023-02-02T11:27:15.622Z,6.06
2023-02-02T11:32:28.394Z,6.04
2023-02-02T11:37:32.203Z,6.05
2023-02-02T11:42:36.544Z,6.05
2023-02-02T11:47:39.416Z,6.05
2023-02-02T11:52:47.175Z,6.11
2023-02-02T11:58:18.314Z,6.11
2023-02-02T12:03:30.820Z,6.09
2023-02-02T12:08:33.647Z,6.12
2023-02-02T12:13:52.994Z,6.14
2023-02-02T12:19:15.012Z,6.15
2023-02-02T12:24:32.395Z,6.20
2023-02-02T12:30:10.993Z,6.34
2023-02-02T12:35:29.808Z,6.41
2023-02-02T12:40:50.450Z,6.49
2023-02-02T12:46:11.706Z,6.50
2023-02-02T12:51:31.373Z,6.55
2023-02-02T12:56:43.088Z,6.61
2023-02-02T13:01:59.209Z,6.62
2023-02-02T13:07:37.703Z,6.68
2023-02-02T13:12:45.660Z,6.74
2023-02-02T13:17:54.639Z,6.81
2023-02-02T13:23:00.484Z,6.90
2023-02-02T13:28:08.758Z,6.87
2023-02-02T13:33:31.770Z,6.87
2023-02-02T13:38:35.023Z,6.88
2023-02-02T13:43:48.113Z,6.94
2023-02-02T13:49:05.305Z,6.95
2023-02-02T13:54:39.311Z,7.02
2023-02-02T13:59:55.351Z,7.03
2023-02-02T14:05:02.068Z,7.06
2023-02-02T14:10:06.612Z,7.11
2023-02-02T14:15:13.354Z,7.16
2023-02-02T14:20:43.161Z,7.11
2023-02-02T14:26:06.493Z,7.07
2023-02-02T14:31:29.208Z,7.06
2023-02-02T14:36:33.824Z,7.10
2023-02-02T14:42:15.845Z,7.16
2023-02-02T14:47:43.469Z,7.38
2023-02-02T14:52:59.906Z,7.40
2023-02-02T14:58:05.806Z,7.37
2023-02-02T15:03:53.999Z,7.27
2023-02-02T15:09:36.762Z,7.23
2023-02-02T15:14:45.731Z,7.19
2023-02-02T15:19:56.155Z,7.15
2023-02-02T15:25:07.897Z,7.12
2023-02-02T15:30:16.752Z,7.11
2023-02-02T15:35:23.401Z,7.08
2023-02-02T15:40:30.491Z,7.16
2023-02-02T15:45:37.955Z,7.18
2023-02-02T15:50:46.391Z,7.17
2023-02-02T15:55:50.695Z,7.17
2023-02-02T16:00:59.113Z,7.13
2023-02-02T16:06:02.161Z,7.10
2023-02-02T16:11:10.707Z,7.10
2023-02-02T16:16:26.202Z,7.08
2023-02-02T16:21:30.609Z,7.05
2023-02-02T16:26:36.899Z,7.07
2023-02-02T16:31:40.094Z,7.03
2023-02-02T16:36:43.016Z,7.05
2023-02-02T16:41:49.266Z,7.04
2023-02-02T16:46:53.040Z,7.03
2023-02-02T16:52:12.755Z,7.05
2023-02-02T16:57:20.889Z,7.04
2023-02-02T17:02:29.585Z,7.05
2023-02-02T17:07:34.351Z,7.07
2023-02-02T17:12:38.615Z,7.08
2023-02-02T17:17:41.307Z,7.07
2023-02-02T17:22:47.779Z,7.08
2023-02-02T17:27:51.866Z,7.04
2023-02-02T17:32:54.692Z,7.06
2023-02-02T17:37:57.653Z,7.06
2023-02-02T17:43:02.966Z,7.04
2023-02-02T17:48:06.812Z,7.05
2023-02-02T17:53:12.640Z,7.03
2023-02-02T17:58:18.001Z,7.04
2023-02-02T18:03:23.325Z,7.03
2023-02-02T18:08:26.174Z,7.02
2023-02-02T18:13:30.386Z,7.01
2023-02-02T18:18:33.183Z,7.03
2023-02-02T18:23:36.348Z,7.01
2023-02-02T18:28:40.791Z,6.98
2023-02-02T18:33:44.154Z,6.98
2023-02-02T18:38:48.769Z,6.96
2023-02-02T18:43:55.277Z,6.94
2023-02-02T18:48:58.077Z,6.95
2023-02-02T18:54:00.834Z,6.95
2023-02-02T18:59:06.017Z,6.93
2023-02-02T19:04:09.023Z,6.90
2023-02-02T19:09:13.710Z,6.90
2023-02-02T19:14:19.351Z,6.88
2023-02-02T19:19:27.494Z,6.87
2023-02-02T19:24:37.629Z,6.88
2023-02-02T19:29:41.809Z,6.85
2023-02-02T19:34:45.141Z,6.85
2023-02-02T19:39:48.114Z,6.83
2023-02-02T19:44:52.271Z,6.83
2023-02-02T19:49:55.128Z,6.83
2023-02-02T19:54:58.030Z,6.82
2023-02-02T20:00:12.697Z,6.78
2023-02-02T20:05:20.456Z,6.77
2023-02-02T20:10:25.928Z,6.72
2023-02-02T20:15:33.998Z,6.68
2023-02-02T20:20:41.205Z,6.67
2023-02-02T20:25:45.624Z,6.66
2023-02-02T20:30:50.033Z,6.66
2023-02-02T20:35:52.891Z,6.65
2023-02-02T20:40:56.482Z,6.64
2023-02-02T20:46:00.751Z,6.66
2023-02-02T20:51:03.546Z,6.68
2023-02-02T20:56:07.075Z,6.66
2023-02-02T21:01:11.284Z,6.65
2023-02-02T21:06:14.210Z,6.66
2023-02-02T21:11:16.997Z,6.66
2023-02-02T21:16:21.141Z,6.67
2023-02-02T21:21:24.649Z,6.67
2023-02-02T21:26:30.304Z,6.66
2023-02-02T21:31:37.490Z,6.67
2023-02-02T21:36:43.588Z,6.66
2023-02-02T21:41:46.517Z,6.64
2023-02-02T21:46:52.727Z,6.66
2023-02-02T21:51:59.531Z,6.66
2023-02-02T21:57:06.172Z,6.64
2023-02-02T22:02:36.954Z,6.65
2023-02-02T22:07:41.648Z,6.62
2023-02-02T22:12:44.453Z,6.64
2023-02-02T22:17:49.209Z,6.63
2023-02-02T22:22:53.073Z,6.65
2023-02-02T22:27:58.569Z,6.63
2023-02-02T22:33:03.099Z,6.66
2023-02-02T22:38:06.365Z,6.66
2023-02-02T22:43:09.253Z,6.64
2023-02-02T22:48:14.301Z,6.65
2023-02-02T22:53:17.128Z,6.60
2023-02-02T22:58:19.892Z,6.61
2023-02-02T23:03:24.166Z,6.59
2023-02-02T23:08:26.969Z,6.56
2023-02-02T23:13:29.831Z,6.51
2023-02-02T23:18:33.998Z,6.49
2023-02-02T23:23:36.790Z,6.45
2023-02-02T23:28:39.570Z,6.45
2023-02-02T23:33:43.984Z,6.44
2023-02-02T23:38:46.808Z,6.44
2023-02-02T23:43:50.382Z,6.41
2023-02-02T23:48:54.710Z,6.36
2023-02-02T23:53:57.944Z,6.32
2023-02-02T23:59:00.734Z,6.30
